Time;durP1;ratioP1;P1;durP2;ratioP2;P2;SDS_P1;SDS_P2;PMS_P1;PMS_P2;Temp;Humidity;BMP_temperature;BMP_pressure;BME280_temperature;BME280_humidity;BME280_pressure;Samples;Min_cycle;Max_cycle;Signal;HPM_P1;HPM_P2
2023/12/12 00:01:34;;;;;;;;;;;;;;;16.54;45.14;100598.94;4991030;28;854;-51
2023/12/12 00:04:00;;;;;;;;;;;;;;;16.11;46.31;100614.88;4985098;28;1914;-48
2023/12/12 00:06:25;;;;;;;;;;;;;;;15.81;46.73;100621.97;4984180;28;1139;-50
2023/12/12 00:08:51;;;;;;;;;;;;;;;16.91;44.58;100623.31;4997337;28;1072;-52
2023/12/12 00:11:16;;;;;;;;;;;;;;;17.46;43.15;100625.28;4977885;28;1091;-48
2023/12/12 00:13:42;;;;;;;;;;;;;;;16.49;45.22;100629.13;4982343;28;845;-50
2023/12/12 00:16:08;;;;;;;;;;;;;;;16.06;46.29;100635.72;4995838;28;1053;-47
2023/12/12 00:18:34;;;;;;;;;;;;;;;15.78;46.92;100639.78;4985385;28;1152;-50
2023/12/12 00:21:00;;;;;;;;;;;;;;;16.98;44.18;100622.16;4995971;28;1152;-49
2023/12/12 00:23:26;;;;;;;;;;;;;;;17.38;43.06;100623.91;4996762;28;1142;-51
2023/12/12 00:25:51;;;;;;;;;;;;;;;16.46;45.19;100626.94;4984651;28;1976;-47
2023/12/12 00:28:17;;;;;;;;;;;;;;;15.98;46.26;100630.78;4996941;28;1017;-50
2023/12/12 00:30:42;;;;;;;;;;;;;;;15.70;46.99;100630.16;4996802;28;1052;-49
2023/12/12 00:33:08;;;;;;;;;;;;;;;16.92;44.45;100626.88;4996890;28;1135;-48
2023/12/12 00:35:33;;;;;;;;;;;;;;;17.70;42.46;100628.16;4978609;28;1075;-49
2023/12/12 00:37:59;;;;;;;;;;;;;;;16.64;44.82;100623.59;4982500;28;919;-51
2023/12/12 00:40:25;;;;;;;;;;;;;;;16.10;46.02;100619.53;4983179;28;1200;-50
2023/12/12 00:42:51;;;;;;;;;;;;;;;15.85;46.78;100615.69;4983974;28;1243;-53
2023/12/12 00:45:17;;;;;;;;;;;;;;;15.65;47.08;100629.31;4996455;28;1899;-50
2023/12/12 00:47:43;;;;;;;;;;;;;;;16.23;45.78;100618.19;4983830;28;1107;-52
2023/12/12 00:50:09;;;;;;;;;;;;;;;17.45;43.04;100621.69;4977910;28;1085;-53
2023/12/12 00:52:34;;;;;;;;;;;;;;;17.38;42.90;100615.69;4990082;28;1137;-52
2023/12/12 00:55:00;;;;;;;;;;;;;;;16.45;45.07;100622.53;4990036;28;1397;-53
2023/12/12 00:57:26;;;;;;;;;;;;;;;16.02;46.35;100628.28;4990261;28;1199;-52
2023/12/12 00:59:52;;;;;;;;;;;;;;;16.22;45.80;100630.25;4983907;28;1032;-51
2023/12/12 01:02:19;;;;;;;;;;;;;;;17.56;42.82;100635.38;4990828;28;966;-49
2023/12/12 01:04:45;;;;;;;;;;;;;;;16.94;44.05;100621.91;4983781;28;1907;-52
2023/12/12 01:07:11;;;;;;;;;;;;;;;16.25;45.59;100632.44;4995896;28;1048;-48
2023/12/12 01:09:36;;;;;;;;;;;;;;;15.94;46.34;100637.09;4988515;28;1165;-51
2023/12/12 01:12:02;;;;;;;;;;;;;;;15.78;47.00;100623.34;5000121;28;1035;-52
2023/12/12 01:14:27;;;;;;;;;;;;;;;17.23;43.66;100616.56;4992170;28;885;-50
2023/12/12 01:16:53;;;;;;;;;;;;;;;17.30;42.93;100607.22;4993780;28;1148;-49
2023/12/12 01:19:18;;;;;;;;;;;;;;;16.46;44.94;100599.50;4981316;28;1052;-51
2023/12/12 01:21:44;;;;;;;;;;;;;;;16.05;45.93;100595.66;4981553;28;1071;-49
2023/12/12 01:24:09;;;;;;;;;;;;;;;15.77;46.75;100598.91;5000360;28;1901;-47
2023/12/12 01:26:35;;;;;;;;;;;;;;;15.95;46.37;100606.66;4993637;28;1210;-51
2023/12/12 01:29:01;;;;;;;;;;;;;;;17.35;43.18;100607.16;4987891;28;1292;-51
2023/12/12 01:31:26;;;;;;;;;;;;;;;17.14;43.24;100612.78;4999669;28;1094;-50
2023/12/12 01:33:52;;;;;;;;;;;;;;;16.27;45.68;100608.31;4987577;28;1065;-50
2023/12/12 01:36:18;;;;;;;;;;;;;;;15.91;46.32;100600.88;4999539;28;1043;-51
2023/12/12 01:38:43;;;;;;;;;;;;;;;17.10;43.82;100578.72;4981635;28;1101;-49
2023/12/12 01:41:09;;;;;;;;;;;;;;;17.61;42.45;100569.34;4980885;28;1016;-47
2023/12/12 01:43:35;;;;;;;;;;;;;;;16.62;44.69;100570.06;4980784;28;1902;-52
2023/12/12 01:46:01;;;;;;;;;;;;;;;16.12;45.68;100561.66;4992197;28;1060;-48
2023/12/12 01:48:27;;;;;;;;;;;;;;;15.83;46.70;100562.22;4995011;28;1136;-51
2023/12/12 01:50:52;;;;;;;;;;;;;;;16.35;45.49;100558.31;4986568;28;1051;-49
2023/12/12 01:53:19;;;;;;;;;;;;;;;17.62;42.54;100563.56;4995092;28;1135;-51
2023/12/12 01:55:45;;;;;;;;;;;;;;;16.89;44.02;100561.50;4999088;28;1103;-52
2023/12/12 01:58:10;;;;;;;;;;;;;;;16.17;45.62;100567.13;4986767;28;1089;-47
2023/12/12 02:00:36;;;;;;;;;;;;;;;15.87;46.58;100574.28;4987965;28;1226;-49
2023/12/12 02:03:01;;;;;;;;;;;;;;;17.08;43.66;100581.75;4998874;28;1115;-47
2023/12/12 02:05:27;;;;;;;;;;;;;;;17.90;41.72;100574.09;4998881;28;1987;-51
2023/12/12 02:07:52;;;;;;;;;;;;;;;16.74;44.49;100579.63;4994574;28;1142;-49
2023/12/12 02:10:19;;;;;;;;;;;;;;;16.25;45.35;100583.84;4979010;28;1136;-48
2023/12/12 02:12:44;;;;;;;;;;;;;;;15.91;46.25;100586.34;4993195;28;1033;-51
2023/12/12 02:15:10;;;;;;;;;;;;;;;15.83;46.39;100597.84;4999100;28;1109;-49
2023/12/12 02:17:35;;;;;;;;;;;;;;;17.30;43.33;100597.03;4993883;28;1114;-48
2023/12/12 02:20:01;;;;;;;;;;;;;;;17.64;42.40;100571.53;4978778;28;1060;-48
2023/12/12 02:22:26;;;;;;;;;;;;;;;16.62;44.54;100581.91;4980404;28;1081;-50
2023/12/12 02:24:52;;;;;;;;;;;;;;;16.15;45.63;100580.31;4989017;28;1984;-52
2023/12/12 02:27:18;;;;;;;;;;;;;;;15.89;46.22;100581.16;4992360;28;1133;-50
2023/12/12 02:29:44;;;;;;;;;;;;;;;16.90;44.13;100587.84;4978736;28;1107;-51
2023/12/12 02:32:09;;;;;;;;;;;;;;;17.89;41.88;100591.72;4979835;28;1076;-50
2023/12/12 02:34:35;;;;;;;;;;;;;;;17.00;43.72;100592.47;4991324;28;1103;-48
2023/12/12 02:37:00;;;;;;;;;;;;;;;16.31;45.42;100587.41;4982809;28;1156;-49
2023/12/12 02:39:26;;;;;;;;;;;;;;;15.93;46.32;100583.34;4979757;28;1092;-53
2023/12/12 02:41:51;;;;;;;;;;;;;;;15.81;46.58;100594.56;4984248;28;1069;-52
2023/12/12 02:44:17;;;;;;;;;;;;;;;17.12;43.63;100590.25;4987181;28;1971;-50
2023/12/12 02:46:42;;;;;;;;;;;;;;;17.55;42.26;100592.50;4984036;28;1183;-50
2023/12/12 02:49:09;;;;;;;;;;;;;;;16.53;44.74;100600.84;4989947;28;1126;-50
2023/12/12 02:51:35;;;;;;;;;;;;;;;16.08;45.86;100595.13;4985690;28;981;-51
2023/12/12 02:54:00;;;;;;;;;;;;;;;15.84;46.60;100600.31;4998733;28;1128;-48
2023/12/12 02:56:30;;;;;;;;;;;;;;;17.30;43.36;100601.72;4998205;28;1074;-51
2023/12/12 02:58:55;;;;;;;;;;;;;;;17.24;43.22;100604.47;4998536;28;1045;-52
2023/12/12 03:01:21;;;;;;;;;;;;;;;16.38;45.14;100601.69;4982838;28;1239;-51
2023/12/12 03:03:46;;;;;;;;;;;;;;;15.97;45.97;100603.63;4998280;28;1913;-50
2023/12/12 03:06:12;;;;;;;;;;;;;;;15.96;46.41;100605.53;4993342;28;1076;-48
2023/12/12 03:08:37;;;;;;;;;;;;;;;17.45;42.74;100605.19;4990424;28;1120;-51
2023/12/12 03:11:03;;;;;;;;;;;;;;;17.05;43.37;100600.72;4980215;28;1103;-50
2023/12/12 03:13:28;;;;;;;;;;;;;;;16.30;45.45;100602.25;4982438;28;1492;-54
2023/12/12 03:15:54;;;;;;;;;;;;;;;15.96;46.27;100597.31;4979990;28;1270;-50
2023/12/12 03:18:20;;;;;;;;;;;;;;;15.90;46.19;100588.25;4979005;28;1013;-49
2023/12/12 03:20:45;;;;;;;;;;;;;;;17.39;42.92;100594.50;4991446;28;1073;-50
2023/12/12 03:23:11;;;;;;;;;;;;;;;17.09;43.52;100585.31;4990129;28;1469;-51
2023/12/12 03:25:37;;;;;;;;;;;;;;;16.33;45.05;100592.66;4996452;28;1910;-47
2023/12/12 03:28:02;;;;;;;;;;;;;;;15.99;45.81;100590.44;4997651;28;1144;-47
2023/12/12 03:30:28;;;;;;;;;;;;;;;16.06;45.89;100594.59;4984453;28;1180;-53
2023/12/12 03:32:54;;;;;;;;;;;;;;;17.49;42.62;100593.63;4998076;28;1133;-52
2023/12/12 03:35:19;;;;;;;;;;;;;;;16.85;43.80;100604.34;4985238;28;1184;-51
2023/12/12 03:37:45;;;;;;;;;;;;;;;16.21;45.34;100598.41;4990335;28;1121;-50
2023/12/12 03:40:11;;;;;;;;;;;;;;;15.89;46.14;100605.81;4984791;28;1055;-52
2023/12/12 03:42:36;;;;;;;;;;;;;;;16.99;43.89;100597.16;4997555;28;1167;-53
2023/12/12 03:45:02;;;;;;;;;;;;;;;17.48;42.55;100603.00;4993659;28;1910;-51
2023/12/12 03:47:27;;;;;;;;;;;;;;;16.49;44.71;100604.41;4988900;28;1087;-47
2023/12/12 03:49:53;;;;;;;;;;;;;;;16.06;45.75;100612.94;4981529;28;1107;-50
2023/12/12 03:52:18;;;;;;;;;;;;;;;15.95;46.05;100617.63;4988565;28;1172;-51
2023/12/12 03:54:44;;;;;;;;;;;;;;;17.43;42.70;100610.16;4984653;28;1051;-47
2023/12/12 03:57:10;;;;;;;;;;;;;;;17.31;42.86;100609.66;4987407;28;1153;-49
2023/12/12 03:59:35;;;;;;;;;;;;;;;16.43;44.69;100612.66;4994162;28;1164;-50
2023/12/12 04:02:01;;;;;;;;;;;;;;;16.01;45.67;100608.28;4991740;28;1116;-47
2023/12/12 04:04:26;;;;;;;;;;;;;;;15.76;46.29;100602.75;4994158;28;1906;-48
2023/12/12 04:06:52;;;;;;;;;;;;;;;16.08;45.83;100606.09;4997242;28;1122;-50
2023/12/12 04:09:18;;;;;;;;;;;;;;;17.42;42.88;100605.75;4997134;28;1008;-46
2023/12/12 04:11:43;;;;;;;;;;;;;;;17.49;42.41;100610.13;4997007;28;1138;-48
2023/12/12 04:14:09;;;;;;;;;;;;;;;16.53;44.46;100606.31;4991325;28;1085;-49
2023/12/12 04:16:34;;;;;;;;;;;;;;;16.07;45.63;100604.47;4987909;28;1162;-49
2023/12/12 04:19:00;;;;;;;;;;;;;;;15.83;46.17;100603.34;4993553;28;1100;-50
2023/12/12 04:21:26;;;;;;;;;;;;;;;16.34;45.10;100600.59;4977970;28;1084;-49
2023/12/12 04:23:51;;;;;;;;;;;;;;;17.62;42.11;100599.31;4981294;28;1902;-51
2023/12/12 04:26:17;;;;;;;;;;;;;;;17.01;43.51;100610.63;4995580;28;2528;-49
2023/12/12 04:28:42;;;;;;;;;;;;;;;16.29;45.14;100625.28;4981340;28;2086;-52
2023/12/12 04:31:12;;;;;;;;;;;;;;;15.92;45.86;100629.09;4977745;28;1953;-52
2023/12/12 04:33:38;;;;;;;;;;;;;;;15.73;46.53;100634.28;4992751;28;2208;-50
2023/12/12 04:36:04;;;;;;;;;;;;;;;17.03;43.75;100638.66;4968376;28;1828;-54
2023/12/12 04:38:30;;;;;;;;;;;;;;;17.75;42.07;100650.13;4986821;28;1906;-55
2023/12/12 04:40:55;;;;;;;;;;;;;;;16.71;44.24;100646.09;4977499;28;2052;-54
2023/12/12 04:43:22;;;;;;;;;;;;;;;16.14;45.51;100630.78;4976424;28;1110;-53
2023/12/12 04:45:47;;;;;;;;;;;;;;;15.85;46.38;100636.78;4975202;28;1905;-54
2023/12/12 04:48:13;;;;;;;;;;;;;;;16.94;44.03;100646.63;4968555;28;1279;-52
2023/12/12 04:50:38;;;;;;;;;;;;;;;17.28;42.87;100655.03;4986146;28;1091;-52
2023/12/12 04:53:04;;;;;;;;;;;;;;;16.36;45.28;100646.97;4982460;28;990;-50
2023/12/12 04:55:30;;;;;;;;;;;;;;;15.97;46.23;100651.06;4984625;28;1076;-52
2023/12/12 04:57:56;;;;;;;;;;;;;;;17.31;43.25;100652.84;4990094;28;962;-55
2023/12/12 05:00:21;;;;;;;;;;;;;;;16.90;43.77;100646.38;4988441;28;1013;-51
2023/12/12 05:02:47;;;;;;;;;;;;;;;16.20;45.47;100649.72;4988910;28;1025;-55
2023/12/12 05:05:12;;;;;;;;;;;;;;;15.83;46.42;100663.66;4988534;28;1898;-55
2023/12/12 05:07:38;;;;;;;;;;;;;;;15.88;46.23;100660.94;4996084;28;1110;-55
2023/12/12 05:10:04;;;;;;;;;;;;;;;17.34;43.15;100652.25;4984497;28;1946;-55
2023/12/12 05:12:29;;;;;;;;;;;;;;;17.09;43.54;100664.97;4976899;28;1093;-56
2023/12/12 05:14:55;;;;;;;;;;;;;;;16.25;45.14;100670.84;4976692;28;1167;-54
2023/12/12 05:17:21;;;;;;;;;;;;;;;15.95;45.96;100657.91;4982055;28;1041;-49
2023/12/12 05:19:46;;;;;;;;;;;;;;;16.04;45.89;100654.34;4985094;28;1004;-56
2023/12/12 05:22:12;;;;;;;;;;;;;;;17.44;42.77;100647.53;4977094;28;1153;-55
2023/12/12 05:24:37;;;;;;;;;;;;;;;16.95;43.78;100639.22;4976990;28;1981;-53
2023/12/12 05:27:03;;;;;;;;;;;;;;;16.39;44.91;100633.50;4976568;28;1122;-53
2023/12/12 05:29:29;;;;;;;;;;;;;;;18.07;41.38;100631.50;4976781;28;1037;-53
2023/12/12 05:31:54;;;;;;;;;;;;;;;16.76;43.74;100632.38;4976871;28;1032;-52
2023/12/12 05:34:20;;;;;;;;;;;;;;;17.33;43.14;100629.44;4988076;28;1116;-53
2023/12/12 05:36:45;;;;;;;;;;;;;;;17.58;42.20;100625.72;4980647;28;1132;-55
2023/12/12 05:39:11;;;;;;;;;;;;;;;16.56;44.16;100621.41;4976744;28;2005;-53
2023/12/12 05:41:37;;;;;;;;;;;;;;;17.03;43.75;100625.72;4975889;28;1024;-56
2023/12/12 05:44:02;;;;;;;;;;;;;;;16.96;43.75;100624.34;4976486;28;1914;-53
2023/12/12 05:46:28;;;;;;;;;;;;;;;17.23;43.33;100640.47;4976337;28;1070;-49
2023/12/12 05:48:53;;;;;;;;;;;;;;;18.49;40.36;100646.53;4976493;28;1137;-50
2023/12/12 05:51:19;;;;;;;;;;;;;;;16.95;43.63;100645.53;4976355;28;1078;-50
2023/12/12 05:53:44;;;;;;;;;;;;;;;16.52;44.30;100667.81;4988634;28;1041;-55
2023/12/12 05:56:13;;;;;;;;;;;;;;;17.13;43.53;100673.50;4993486;28;1121;-53
2023/12/12 05:58:39;;;;;;;;;;;;;;;17.72;42.18;100669.09;4991973;28;1322;-56
2023/12/12 06:01:04;;;;;;;;;;;;;;;16.68;44.17;100681.53;4999225;28;1021;-54
2023/12/12 06:03:31;;;;;;;;;;;;;;;18.36;41.03;100688.53;4986386;28;1536;-54
2023/12/12 06:05:57;;;;;;;;;;;;;;;17.40;42.57;100695.09;4992696;28;1977;-53
2023/12/12 06:08:22;;;;;;;;;;;;;;;16.69;44.18;100691.41;4987948;28;1041;-54
2023/12/12 06:10:48;;;;;;;;;;;;;;;18.13;41.24;100674.34;4983827;28;2096;-51
2023/12/12 06:13:14;;;;;;;;;;;;;;;16.93;43.90;100677.97;4971342;28;1223;-54
2023/12/12 06:15:39;;;;;;;;;;;;;;;17.58;42.65;100671.66;4970979;28;1445;-53
2023/12/12 06:18:06;;;;;;;;;;;;;;;17.62;42.34;100691.97;4988096;28;1016;-50
2023/12/12 06:20:33;;;;;;;;;;;;;;;16.81;44.04;100688.38;4993922;28;1013;-55
2023/12/12 06:22:59;;;;;;;;;;;;;;;16.45;44.16;100693.88;4991073;28;1057;-55
2023/12/12 06:25:24;;;;;;;;;;;;;;;17.59;42.82;100682.38;4992892;28;1981;-53
2023/12/12 06:27:50;;;;;;;;;;;;;;;17.13;43.56;100684.50;4990742;28;1436;-53
2023/12/12 06:30:15;;;;;;;;;;;;;;;17.68;42.73;100681.78;4985279;28;1016;-51
2023/12/12 06:32:41;;;;;;;;;;;;;;;18.60;40.18;100672.06;4986910;28;1044;-54
2023/12/12 06:35:07;;;;;;;;;;;;;;;17.19;43.38;100678.69;4979273;28;1142;-56
2023/12/12 06:37:32;;;;;;;;;;;;;;;16.76;44.06;100676.31;4979016;28;1108;-55
2023/12/12 06:39:58;;;;;;;;;;;;;;;16.49;44.31;100667.53;4988255;28;1969;-54
2023/12/12 06:42:24;;;;;;;;;;;;;;;17.63;42.87;100660.63;4989343;28;1143;-56
2023/12/12 06:44:49;;;;;;;;;;;;;;;17.06;43.69;100658.13;4981407;28;1910;-53
2023/12/12 06:47:15;;;;;;;;;;;;;;;17.48;43.19;100660.72;4989916;28;1055;-52
2023/12/12 06:49:40;;;;;;;;;;;;;;;18.24;41.30;100664.94;4993970;28;993;-53
2023/12/12 06:52:06;;;;;;;;;;;;;;;17.06;43.75;100671.03;4985632;28;1186;-57
2023/12/12 06:54:32;;;;;;;;;;;;;;;16.64;44.14;100672.22;4981095;28;1295;-54
2023/12/12 06:56:57;;;;;;;;;;;;;;;18.10;41.64;100664.78;4992770;28;1198;-51
2023/12/12 06:59:23;;;;;;;;;;;;;;;16.91;44.00;100664.50;4998517;28;1104;-51
2023/12/12 07:01:48;;;;;;;;;;;;;;;16.58;44.54;100663.16;4980731;28;1207;-53
2023/12/12 07:04:14;;;;;;;;;;;;;;;16.39;44.36;100666.44;4975628;28;1977;-55
2023/12/12 07:06:41;;;;;;;;;;;;;;;17.74;42.39;100659.47;4980561;28;1111;-50
2023/12/12 07:09:07;;;;;;;;;;;;;;;16.62;44.58;100664.25;4981264;28;1887;-50
2023/12/12 07:11:37;;;;;;;;;;;;;;;18.12;41.92;100657.03;4978961;28;1040;-48
2023/12/12 07:14:03;;;;;;;;;;;;;;;17.39;43.14;100649.47;4973406;28;1149;-49
2023/12/12 07:16:29;;;;;;;;;;;;;;;16.83;43.92;100653.22;4983039;28;1262;-46
2023/12/12 07:18:55;;;;;;;;;;;;;;;17.88;42.25;100650.56;4979817;28;1246;-49
2023/12/12 07:21:21;;;;;;;;;;;;;;;17.31;43.22;100652.84;4979801;28;1263;-47
2023/12/12 07:23:48;;;;;;;;;;;;;;;16.75;44.06;100674.66;4987620;28;1969;-48
2023/12/12 07:26:18;;;;;;;;;;;;;;;16.82;44.16;100668.06;4981526;28;1171;-49
2023/12/12 07:28:43;;;;;;;;;;;;;;;17.58;42.76;100650.47;4985645;28;895;-45
2023/12/12 07:31:10;;;;;;;;;;;;;;;16.66;44.54;100664.50;4979310;28;1133;-50
2023/12/12 07:33:36;;;;;;;;;;;;;;;17.78;42.43;100648.72;4980084;28;1307;-50
2023/12/12 07:36:02;;;;;;;;;;;;;;;17.15;43.44;100649.31;4977691;28;1152;-50
2023/12/12 07:38:27;;;;;;;;;;;;;;;16.74;44.40;100656.53;4975927;28;1397;-47
2023/12/12 07:40:53;;;;;;;;;;;;;;;17.90;41.97;100664.88;4988835;28;1863;-51
2023/12/12 07:43:19;;;;;;;;;;;;;;;16.82;44.22;100663.38;4992931;28;1163;-53
2023/12/12 07:45:45;;;;;;;;;;;;;;;16.48;44.46;100664.00;4977538;28;1985;-51
2023/12/12 07:48:10;;;;;;;;;;;;;;;17.78;42.45;100673.47;4990687;28;1079;-51
2023/12/12 07:50:36;;;;;;;;;;;;;;;17.77;42.23;100682.84;4978004;28;1129;-53
2023/12/12 07:53:04;;;;;;;;;;;;;;;16.83;44.08;100667.78;4981943;28;1017;-53
2023/12/12 07:55:31;;;;;;;;;;;;;;;17.76;42.61;100676.50;4986340;28;1108;-55
2023/12/12 07:57:57;;;;;;;;;;;;;;;16.99;43.89;100673.28;4986568;28;1073;-49
2023/12/12 08:00:22;;;;;;;;;;;;;;;17.53;43.04;100688.16;4978263;28;1064;-54
2023/12/12 08:02:48;;;;;;;;;;;;;;;17.91;41.81;100683.06;4977948;28;1243;-55
2023/12/12 08:05:13;;;;;;;;;;;;;;;16.90;43.87;100673.00;4983675;28;1902;-50
2023/12/12 08:07:39;;;;;;;;;;;;;;;17.22;43.51;100678.16;4979278;28;1199;-51
2023/12/12 08:10:06;;;;;;;;;;;;;;;17.67;42.43;100675.47;4978172;28;1800;-56
2023/12/12 08:12:31;;;;;;;;;;;;;;;16.82;43.91;100681.78;4978503;28;1437;-52
2023/12/12 08:14:57;;;;;;;;;;;;;;;16.98;43.97;100668.88;4985500;28;1024;-55
2023/12/12 08:17:22;;;;;;;;;;;;;;;17.42;42.77;100652.50;4975714;28;1379;-52
2023/12/12 08:19:48;;;;;;;;;;;;;;;16.78;44.19;100662.28;4978298;28;1358;-56
2023/12/12 08:22:14;;;;;;;;;;;;;;;17.06;43.85;100655.38;4988596;28;1416;-50
2023/12/12 08:24:39;;;;;;;;;;;;;;;17.65;42.58;100646.59;4996471;28;1965;-55
2023/12/12 08:27:06;;;;;;;;;;;;;;;16.97;44.28;100651.56;4996317;28;1036;-55
2023/12/12 08:29:31;;;;;;;;;;;;;;;18.63;40.58;100649.44;4990927;28;1009;-56
2023/12/12 08:31:57;;;;;;;;;;;;;;;17.47;42.70;100657.13;4977763;28;1298;-53
2023/12/12 08:34:23;;;;;;;;;;;;;;;16.85;44.11;100651.03;4978068;28;1171;-57
2023/12/12 08:36:49;;;;;;;;;;;;;;;17.12;43.74;100655.38;4978649;28;1045;-48
2023/12/12 08:39:14;;;;;;;;;;;;;;;17.52;42.67;100654.38;4976233;28;1812;-49
2023/12/12 08:41:40;;;;;;;;;;;;;;;16.82;43.99;100654.34;4977793;28;1302;-52
2023/12/12 08:44:05;;;;;;;;;;;;;;;16.56;44.24;100655.19;4982316;28;1907;-47
2023/12/12 08:46:31;;;;;;;;;;;;;;;17.23;43.56;100645.97;4984082;28;1092;-46
2023/12/12 08:48:57;;;;;;;;;;;;;;;17.01;43.91;100638.94;4982857;28;1075;-54
2023/12/12 08:51:22;;;;;;;;;;;;;;;16.55;44.48;100641.72;4985814;28;1112;-50
2023/12/12 08:53:49;;;;;;;;;;;;;;;18.01;42.16;100633.47;4966394;28;958;-51
2023/12/12 08:56:15;;;;;;;;;;;;;;;16.99;44.08;100626.56;4982522;28;1075;-47
2023/12/12 08:58:44;;;;;;;;;;;;;;;17.60;43.02;100628.22;4985649;28;1115;-53
2023/12/12 09:01:10;;;;;;;;;;;;;;;17.89;41.95;100624.72;4989413;28;1132;-45
2023/12/12 09:03:36;;;;;;;;;;;;;;;17.04;43.92;100621.03;4979169;28;1045;-48
2023/12/12 09:06:01;;;;;;;;;;;;;;;16.58;44.25;100622.78;4982874;28;1980;-45
2023/12/12 09:08:27;;;;;;;;;;;;;;;17.56;43.11;100621.66;4964283;28;1191;-48
2023/12/12 09:10:53;;;;;;;;;;;;;;;16.91;43.93;100623.31;4976920;28;2126;-47
2023/12/12 09:13:18;;;;;;;;;;;;;;;16.54;44.60;100629.13;4983675;28;1211;-50
2023/12/12 09:15:44;;;;;;;;;;;;;;;18.01;41.72;100633.47;4991751;28;1305;-55
2023/12/12 09:18:10;;;;;;;;;;;;;;;16.83;44.23;100632.09;4982854;28;903;-56
2023/12/12 09:20:35;;;;;;;;;;;;;;;16.93;44.50;100639.50;4983505;28;1104;-47
2023/12/12 09:23:01;;;;;;;;;;;;;;;18.45;40.99;100638.06;4989187;28;1047;-48
2023/12/12 09:25:27;;;;;;;;;;;;;;;17.07;43.68;100640.53;4989826;28;1907;-54
2023/12/12 09:27:52;;;;;;;;;;;;;;;17.93;42.13;100634.88;4996093;28;1039;-50
2023/12/12 09:30:18;;;;;;;;;;;;;;;17.81;42.22;100639.06;4985617;28;988;-56
2023/12/12 09:32:43;;;;;;;;;;;;;;;16.96;43.95;100647.19;4993283;28;1041;-50
2023/12/12 09:35:10;;;;;;;;;;;;;;;16.71;44.03;100640.59;4992755;28;993;-50
2023/12/12 09:37:35;;;;;;;;;;;;;;;18.05;41.84;100640.03;4989424;28;1017;-54
2023/12/12 09:40:02;;;;;;;;;;;;;;;17.11;43.73;100635.31;4980198;28;1973;-48
2023/12/12 09:42:27;;;;;;;;;;;;;;;17.71;42.77;100642.72;4979852;28;1313;-47
2023/12/12 09:45:00;;;;;;;;;;;;;;;18.13;41.68;100631.16;5006237;28;1955;-51
2023/12/12 09:47:29;;;;;;;;;;;;;;;17.06;43.63;100625.16;4979856;28;1044;-50
2023/12/12 09:49:55;;;;;;;;;;;;;;;16.76;44.08;100620.56;4994513;28;1120;-46
2023/12/12 09:52:21;;;;;;;;;;;;;;;17.19;43.82;100622.91;4994297;28;1131;-47
2023/12/12 09:54:47;;;;;;;;;;;;;;;18.16;41.63;100634.44;4990021;28;1144;-46
2023/12/12 09:57:14;;;;;;;;;;;;;;;17.06;43.79;100636.16;4995848;28;1291;-46
2023/12/12 09:59:40;;;;;;;;;;;;;;;16.64;44.23;100629.09;4986258;28;1222;-45
2023/12/12 10:02:05;;;;;;;;;;;;;;;16.53;44.25;100627.47;4966033;28;1377;-45
2023/12/12 10:04:31;;;;;;;;;;;;;;;17.96;42.36;100630.75;4967018;28;1962;-46
2023/12/12 10:06:57;;;;;;;;;;;;;;;17.14;43.84;100620.19;4981406;28;1389;-44
2023/12/12 10:09:22;;;;;;;;;;;;;;;16.56;44.55;100625.00;4966044;28;2481;-46
2023/12/12 10:11:48;;;;;;;;;;;;;;;17.72;42.83;100622.34;4973793;28;1247;-48
2023/12/12 10:14:13;;;;;;;;;;;;;;;17.48;43.29;100619.50;4974362;28;1349;-45
2023/12/12 10:16:39;;;;;;;;;;;;;;;16.87;44.08;100626.84;4968432;28;1321;-44
2023/12/12 10:19:06;;;;;;;;;;;;;;;17.45;43.40;100624.44;4964869;28;1370;-47
2023/12/12 10:21:32;;;;;;;;;;;;;;;17.40;43.05;100624.47;4990222;28;1278;-49
2023/12/12 10:23:58;;;;;;;;;;;;;;;16.77;44.45;100617.53;4981436;28;1899;-50
2023/12/12 10:26:26;;;;;;;;;;;;;;;17.26;44.01;100615.19;4979703;28;1330;-46
2023/12/12 10:28:52;;;;;;;;;;;;;;;17.34;43.47;100617.34;4979752;28;1510;-52
2023/12/12 10:31:22;;;;;;;;;;;;;;;17.77;42.91;100619.59;4990645;28;1037;-56
2023/12/12 10:33:48;;;;;;;;;;;;;;;18.92;40.01;100624.66;4978050;28;1056;-55
2023/12/12 10:36:14;;;;;;;;;;;;;;;17.41;43.07;100626.09;4979146;28;1021;-56
2023/12/12 10:38:40;;;;;;;;;;;;;;;16.90;44.12;100627.16;4983648;28;1081;-55
2023/12/12 10:41:11;;;;;;;;;;;;;;;16.73;43.97;100626.59;4990863;28;2084;-56
2023/12/12 10:43:41;;;;;;;;;;;;;;;18.30;41.66;100619.75;4979132;28;1135;-55
2023/12/12 10:46:11;;;;;;;;;;;;;;;17.21;43.82;100626.22;4986029;28;1918;-55
2023/12/12 10:48:46;;;;;;;;;;;;;;;17.60;43.02;100622.72;4995273;28;1437;-55
2023/12/12 10:51:12;;;;;;;;;;;;;;;17.83;42.42;100617.63;4989045;28;1044;-56
2023/12/12 10:53:40;;;;;;;;;;;;;;;17.04;43.86;100621.03;4993251;28;1023;-54
2023/12/12 10:56:05;;;;;;;;;;;;;;;16.72;44.40;100614.00;4988694;28;1053;-55
2023/12/12 10:58:31;;;;;;;;;;;;;;;16.86;44.16;100615.03;4984101;28;1008;-55
2023/12/12 11:00:57;;;;;;;;;;;;;;;17.74;42.81;100623.72;4987353;28;1007;-55
2023/12/12 11:03:23;;;;;;;;;;;;;;;16.86;44.55;100625.22;4981607;28;1052;-51
2023/12/12 11:05:48;;;;;;;;;;;;;;;17.40;43.92;100624.47;4997133;28;1922;-55
2023/12/12 11:08:14;;;;;;;;;;;;;;;17.18;44.14;100622.09;4981570;28;1124;-56
2023/12/12 11:10:40;;;;;;;;;;;;;;;16.76;44.55;100629.63;4993558;28;2207;-50
2023/12/12 11:13:06;;;;;;;;;;;;;;;16.65;44.95;100627.16;4991020;28;1168;-54
2023/12/12 11:15:32;;;;;;;;;;;;;;;17.63;43.09;100616.66;4993993;28;1432;-56
2023/12/12 11:17:57;;;;;;;;;;;;;;;16.68;44.93;100619.19;4982087;28;1373;-56
2023/12/12 11:20:24;;;;;;;;;;;;;;;17.47;43.77;100618.66;4988240;28;1330;-52
2023/12/12 11:22:53;;;;;;;;;;;;;;;17.74;42.94;100612.72;4988296;28;1043;-55
2023/12/12 11:25:22;;;;;;;;;;;;;;;16.88;44.92;100612.84;4991162;28;1990;-55
2023/12/12 11:27:52;;;;;;;;;;;;;;;18.62;41.18;100617.50;4977785;28;1050;-52
2023/12/12 11:30:18;;;;;;;;;;;;;;;17.38;43.38;100612.94;4990305;28;1055;-53
2023/12/12 11:32:44;;;;;;;;;;;;;;;16.96;44.17;100603.22;4981759;28;1048;-51
2023/12/12 11:35:31;;;;;;;;;;;;;;;17.23;44.13;100607.50;4979594;28;1254;-55
2023/12/12 11:38:00;;;;;;;;;;;;;;;17.55;43.45;100614.50;4978432;28;1164;-53
2023/12/12 11:40:27;;;;;;;;;;;;;;;16.88;44.26;100614.75;4982308;28;1925;-51
2023/12/12 11:42:52;;;;;;;;;;;;;;;17.27;43.99;100609.41;4978584;28;1143;-46
2023/12/12 11:45:30;;;;;;;;;;;;;;;17.88;42.68;100606.56;4990565;28;1981;-55
2023/12/12 11:47:57;;;;;;;;;;;;;;;16.88;44.42;100601.03;4979266;28;1317;-56
2023/12/12 11:50:26;;;;;;;;;;;;;;;16.75;44.47;100597.75;4989789;28;1278;-55
2023/12/12 11:52:51;;;;;;;;;;;;;;;17.81;43.13;100603.31;4971770;28;974;-57
2023/12/12 11:55:21;;;;;;;;;;;;;;;17.43;43.77;100601.06;4979742;28;1144;-56
2023/12/12 11:57:48;;;;;;;;;;;;;;;16.79;44.67;100602.69;4985111;28;1166;-58
2023/12/12 12:00:14;;;;;;;;;;;;;;;17.47;43.66;100606.84;4979856;28;1266;-56
2023/12/12 12:02:40;;;;;;;;;;;;;;;17.13;44.34;100607.56;4977930;28;1059;-56
2023/12/12 12:05:06;;;;;;;;;;;;;;;16.71;44.79;100596.69;4980566;28;1991;-55
2023/12/12 12:07:32;;;;;;;;;;;;;;;18.38;41.93;100604.50;4986857;28;1042;-55
2023/12/12 12:09:57;;;;;;;;;;;;;;;17.45;43.66;100599.69;4988352;28;2115;-55
2023/12/12 12:12:23;;;;;;;;;;;;;;;16.87;44.61;100588.38;4975203;28;1365;-53
2023/12/12 12:14:48;;;;;;;;;;;;;;;16.66;44.51;100590.38;4978927;28;1227;-53
2023/12/12 12:17:14;;;;;;;;;;;;;;;17.67;43.44;100579.22;4977474;28;1441;-57
2023/12/12 12:19:39;;;;;;;;;;;;;;;17.39;43.78;100595.34;4976008;28;1179;-55
2023/12/12 12:22:06;;;;;;;;;;;;;;;16.74;44.91;100593.38;4991292;28;1088;-55
2023/12/12 12:24:31;;;;;;;;;;;;;;;16.57;44.95;100590.13;4983775;28;1984;-49
2023/12/12 12:26:57;;;;;;;;;;;;;;;18.34;42.13;100592.47;4982614;28;1067;-51
2023/12/12 12:29:23;;;;;;;;;;;;;;;17.13;44.14;100591.91;4982012;28;1204;-55
2023/12/12 12:31:49;;;;;;;;;;;;;;;16.83;44.88;100593.63;4984676;28;989;-56
2023/12/12 12:34:15;;;;;;;;;;;;;;;18.05;42.58;100595.19;4979265;28;1069;-52
2023/12/12 12:36:42;;;;;;;;;;;;;;;17.56;43.62;100583.16;4986205;28;1539;-57
2023/12/12 12:39:09;;;;;;;;;;;;;;;19.03;40.36;100595.03;4983512;28;1870;-55
2023/12/12 12:41:35;;;;;;;;;;;;;;;18.04;42.31;100583.34;4977688;28;1056;-47